Time;durP1;ratioP1;P1;durP2;ratioP2;P2;SDS_P1;SDS_P2;PMS_P1;PMS_P2;Temp;Humidity;BMP_temperature;BMP_pressure;BME280_temperature;BME280_humidity;BME280_pressure;Samples;Min_cycle;Max_cycle;Signal;HPM_P1;HPM_P2
2023/07/29 00:00:30;;;;;;;5.40;4.50;;;;;;;13.95;100.00;97068.93;110144;1244;59725;-71
2023/07/29 00:03:20;;;;;;;5.00;4.30;;;;;;;13.96;100.00;97067.83;110118;1244;71358;-69
2023/07/29 00:05:50;;;;;;;;;;;;;;;13.96;100.00;97072.48;110028;1244;69319;-70
2023/07/29 00:08:20;;;;;;;4.70;4.20;;;;;;;13.96;100.00;97069.20;110144;1244;69163;-71
2023/07/29 00:10:52;;;;;;;6.10;3.40;;;;;;;13.96;100.00;97061.52;110151;1244;59646;-70
2023/07/29 00:13:23;;;;;;;4.80;4.30;;;;;;;13.97;100.00;97063.65;110217;1244;59695;-70
2023/07/29 00:15:58;;;;;;;4.60;3.90;;;;;;;14.01;100.00;97071.23;110220;1244;70650;-71
2023/07/29 00:18:28;;;;;;;5.10;3.60;;;;;;;14.04;100.00;97063.91;110137;1244;68316;-71
2023/07/29 00:20:59;;;;;;;4.00;3.60;;;;;;;14.08;100.00;97065.27;110120;1241;69279;-70
2023/07/29 00:23:30;;;;;;;4.30;3.80;;;;;;;14.14;100.00;97065.30;110167;1241;59672;-70
2023/07/29 00:26:00;;;;;;;4.40;3.60;;;;;;;14.18;100.00;97060.89;110183;1241;59669;-70
2023/07/29 00:28:31;;;;;;;3.90;3.40;;;;;;;14.22;100.00;97058.71;109724;1244;588534;-70
2023/07/29 00:31:02;;;;;;;4.60;3.40;;;;;;;14.26;100.00;97062.72;110153;1241;68513;-70
2023/07/29 00:33:35;;;;;;;4.40;3.30;;;;;;;14.30;100.00;97064.15;110149;1241;69074;-70
2023/07/29 00:36:06;;;;;;;3.90;3.40;;;;;;;14.34;100.00;97062.38;109922;1244;59750;-69
2023/07/29 00:38:35;;;;;;;5.20;3.50;;;;;;;14.38;100.00;97063.41;110090;1241;59666;-70
2023/07/29 00:41:06;;;;;;;3.40;3.10;;;;;;;14.42;100.00;97067.60;109839;1246;70358;-71
2023/07/29 00:43:38;;;;;;;4.80;3.70;;;;;;;14.46;100.00;97069.49;110223;1244;69181;-70
2023/07/29 00:46:12;;;;;;;3.70;3.20;;;;;;;14.48;100.00;97065.42;110003;1244;68185;-70
2023/07/29 00:48:43;;;;;;;5.00;3.30;;;;;;;14.50;100.00;97065.73;110158;1241;59764;-71
2023/07/29 00:51:14;;;;;;;4.90;3.50;;;;;;;14.53;100.00;97062.95;110073;1244;59649;-70
2023/07/29 00:53:45;;;;;;;4.00;3.30;;;;;;;14.52;100.00;97062.46;110125;1242;71404;-69
2023/07/29 00:56:15;;;;;;;4.80;3.80;;;;;;;14.53;100.00;97057.46;109982;1241;68601;-69
2023/07/29 00:58:46;;;;;;;;;;;;;;;14.54;100.00;97053.86;110153;1243;69375;-69
2023/07/29 01:01:18;;;;;;;4.40;3.80;;;;;;;14.55;100.00;97055.70;110167;1243;59745;-70
2023/07/29 01:03:49;;;;;;;5.20;4.40;;;;;;;14.56;100.00;97055.27;110160;1241;59625;-69
2023/07/29 01:06:35;;;;;;;;;;;;;;;14.55;100.00;97052.90;110163;1244;71072;-70
2023/07/29 01:09:34;;;;;;;6.90;4.30;;;;;;;14.53;100.00;97058.48;110148;1241;68630;-70
2023/07/29 01:12:19;;;;;;;7.40;4.00;;;;;;;14.53;100.00;97059.60;110184;1245;69360;-71
2023/07/29 01:15:11;;;;;;;5.50;3.90;;;;;;;14.52;100.00;97056.67;110150;1241;59734;-69
2023/07/29 01:17:48;;;;;;;4.00;3.40;;;;;;;14.49;100.00;97057.09;109978;1241;59621;-69
2023/07/29 01:20:24;;;;;;;4.70;4.20;;;;;;;14.46;100.00;97060.54;110141;1241;71845;-70
2023/07/29 01:22:55;;;;;;;4.30;3.30;;;;;;;14.44;100.00;97062.86;110147;1244;69288;-69
2023/07/29 01:25:25;;;;;;;4.10;3.10;;;;;;;14.42;100.00;97061.77;110160;1241;69277;-70
2023/07/29 01:27:58;;;;;;;4.10;3.60;;;;;;;14.42;100.00;97056.86;110141;1243;59779;-70
2023/07/29 01:30:35;;;;;;;5.10;3.90;;;;;;;14.41;100.00;97058.48;109958;1244;59803;-70
2023/07/29 01:33:25;;;;;;;5.10;3.90;;;;;;;14.43;100.00;97055.05;109916;1241;70638;-70
2023/07/29 01:36:14;;;;;;;3.80;3.50;;;;;;;14.43;100.00;97057.84;110170;1241;69205;-69
2023/07/29 01:38:48;;;;;;;4.20;3.30;;;;;;;14.45;100.00;97060.96;110143;1244;69331;-71
2023/07/29 01:41:21;;;;;;;4.50;4.10;;;;;;;14.47;100.00;97065.13;110127;1244;59686;-70
2023/07/29 01:43:52;;;;;;;4.80;3.30;;;;;;;14.51;100.00;97070.42;110105;1244;59676;-70
2023/07/29 01:46:22;;;;;;;3.60;3.30;;;;;;;14.54;100.00;97070.04;110076;1245;71345;-70
2023/07/29 01:48:54;;;;;;;5.50;3.50;;;;;;;14.55;100.00;97072.48;110194;1245;69320;-70
2023/07/29 01:51:25;;;;;;;4.20;3.40;;;;;;;14.60;100.00;97073.83;109973;1241;70433;-70
2023/07/29 01:53:59;;;;;;;4.40;3.60;;;;;;;14.64;100.00;97073.96;110107;1245;59744;-70
2023/07/29 01:56:32;;;;;;;4.80;3.40;;;;;;;14.67;100.00;97073.59;110169;1241;59663;-70
2023/07/29 01:59:05;;;;;;;3.50;3.10;;;;;;;14.72;100.00;97074.27;110182;1244;70867;-70
2023/07/29 02:01:36;;;;;;;4.90;3.80;;;;;;;14.75;100.00;97075.67;110023;1244;68265;-70
2023/07/29 02:04:08;;;;;;;4.20;3.70;;;;;;;14.75;100.00;97075.84;110146;1244;69172;-71
2023/07/29 02:06:38;;;;;;;4.00;3.60;;;;;;;14.75;100.00;97074.06;109993;1244;59708;-71
2023/07/29 02:09:09;;;;;;;4.10;3.50;;;;;;;14.77;100.00;97077.79;110022;1244;59753;-70
2023/07/29 02:11:40;;;;;;;4.20;3.30;;;;;;;14.80;100.00;97072.45;110199;1242;70672;-71
2023/07/29 02:14:11;;;;;;;4.20;3.40;;;;;;;14.81;100.00;97072.84;110159;1244;69333;-70
2023/07/29 02:16:42;;;;;;;4.30;3.40;;;;;;;14.82;100.00;97071.23;110179;1244;69307;-70
2023/07/29 02:19:12;;;;;;;3.90;3.40;;;;;;;14.82;100.00;97076.45;110002;1241;59681;-70
2023/07/29 02:21:43;;;;;;;5.30;3.50;;;;;;;14.84;100.00;97078.70;110176;1244;59674;-70
2023/07/29 02:24:15;;;;;;;4.70;3.40;;;;;;;14.86;100.00;97081.85;110007;1241;70657;-70
2023/07/29 02:26:47;;;;;;;4.30;3.30;;;;;;;14.87;100.00;97078.97;110142;1244;69301;-70
2023/07/29 02:29:19;;;;;;;3.90;3.00;;;;;;;14.89;100.00;97074.56;109999;1246;69265;-68
2023/07/29 02:31:53;;;;;;;5.00;3.40;;;;;;;14.92;100.00;97070.44;110179;1244;59705;-67
2023/07/29 02:34:24;;;;;;;5.00;3.30;;;;;;;14.93;100.00;97072.42;110262;1242;59699;-70
2023/07/29 02:36:55;;;;;;;3.70;3.00;;;;;;;14.95;100.00;97068.73;110118;1241;71976;-69
2023/07/29 02:39:26;;;;;;;3.90;3.20;;;;;;;14.97;100.00;97071.14;110023;1244;69321;-70
2023/07/29 02:41:58;;;;;;;3.30;3.00;;;;;;;14.95;100.00;97069.42;110104;1244;69232;-69
2023/07/29 02:44:30;;;;;;;3.30;2.90;;;;;;;14.92;100.00;97070.36;110075;1244;59750;-69
2023/07/29 02:47:02;;;;;;;4.90;3.20;;;;;;;14.90;100.00;97074.46;110105;1244;59685;-69
2023/07/29 02:49:34;;;;;;;3.30;3.00;;;;;;;14.89;100.00;97072.85;110032;1244;71954;-69
2023/07/29 02:52:06;;;;;;;4.70;3.30;;;;;;;14.88;100.00;97073.80;109980;1241;67450;-70
2023/07/29 02:54:38;;;;;;;4.40;3.60;;;;;;;14.86;100.00;97074.61;110169;1243;69206;-70
2023/07/29 02:57:10;;;;;;;4.60;3.40;;;;;;;14.82;100.00;97073.62;110161;1242;59752;-69
2023/07/29 02:59:40;;;;;;;4.50;3.30;;;;;;;14.78;100.00;97075.23;110136;1241;59705;-70
2023/07/29 03:02:10;;;;;;;4.10;3.40;;;;;;;14.75;100.00;97077.61;109982;1245;70646;-70
2023/07/29 03:04:40;;;;;;;;;;;;;;;14.75;100.00;97078.17;109997;1244;68318;-70
2023/07/29 03:07:10;;;;;;;4.40;3.60;;;;;;;14.73;100.00;97083.77;110153;1243;68395;-70
2023/07/29 03:09:42;;;;;;;4.20;3.60;;;;;;;14.75;100.00;97085.02;109909;1241;59736;-69
2023/07/29 03:12:12;;;;;;;4.10;3.20;;;;;;;14.77;100.00;97086.04;109960;1244;59637;-69
2023/07/29 03:14:48;;;;;;;4.20;3.50;;;;;;;14.78;100.00;97089.74;110137;1241;71426;-70
2023/07/29 03:17:18;;;;;;;5.10;3.50;;;;;;;14.82;100.00;97085.41;110142;1245;69340;-69
2023/07/29 03:19:50;;;;;;;4.20;3.40;;;;;;;14.84;100.00;97086.63;110112;1241;68497;-69
2023/07/29 03:22:20;;;;;;;4.70;3.20;;;;;;;14.87;100.00;97087.94;110092;1244;59639;-69
2023/07/29 03:24:51;;;;;;;3.70;3.30;;;;;;;14.88;100.00;97093.09;110122;1241;59682;-69
2023/07/29 03:27:23;;;;;;;3.60;3.20;;;;;;;14.88;100.00;97092.86;110067;1244;71420;-69
2023/07/29 03:29:53;;;;;;;3.40;2.90;;;;;;;14.88;100.00;97093.06;110011;1244;69269;-69
2023/07/29 03:32:23;;;;;;;5.50;3.20;;;;;;;14.88;100.00;97094.61;110087;1243;68384;-69
2023/07/29 03:34:54;;;;;;;3.60;3.00;;;;;;;14.93;100.00;97102.26;109920;1241;59769;-69
2023/07/29 03:37:25;;;;;;;5.60;3.30;;;;;;;14.99;100.00;97100.77;110001;1244;59647;-69
2023/07/29 03:39:55;;;;;;;3.90;3.30;;;;;;;15.08;100.00;97099.25;110137;1244;71410;-69
2023/07/29 03:42:26;;;;;;;5.20;3.60;;;;;;;15.17;100.00;97098.00;109896;1243;69350;-70
2023/07/29 03:44:56;;;;;;;3.80;3.10;;;;;;;15.27;100.00;97098.27;110085;1241;68548;-69
2023/07/29 03:47:27;;;;;;;3.70;2.90;;;;;;;15.35;100.00;97101.88;110073;1244;59709;-70
2023/07/29 03:49:58;;;;;;;4.70;3.30;;;;;;;15.41;100.00;97103.73;109919;1244;59693;-69
2023/07/29 03:52:28;;;;;;;4.20;3.40;;;;;;;15.48;100.00;97108.14;110118;1241;71250;-70
2023/07/29 03:54:59;;;;;;;4.50;3.10;;;;;;;15.52;100.00;97110.52;110105;1241;69017;-70
2023/07/29 03:57:31;;;;;;;3.40;3.10;;;;;;;15.59;100.00;97110.30;110140;1241;69266;-69
2023/07/29 04:00:01;;;;;;;4.40;2.90;;;;;;;15.63;100.00;97107.91;110022;1244;59685;-70
2023/07/29 04:02:31;;;;;;;3.50;3.00;;;;;;;15.70;100.00;97109.34;110100;1244;59675;-69
2023/07/29 04:05:01;;;;;;;3.60;2.80;;;;;;;15.77;100.00;97113.45;109974;1244;71429;-70
2023/07/29 04:07:32;;;;;;;4.20;2.80;;;;;;;15.84;100.00;97112.89;110010;1244;69284;-70
2023/07/29 04:10:02;;;;;;;3.90;3.10;;;;;;;15.91;100.00;97110.34;109857;1244;69630;-70
2023/07/29 04:12:32;;;;;;;3.10;2.60;;;;;;;16.00;99.52;97114.34;109977;1244;59712;-70
2023/07/29 04:15:02;;;;;;;4.20;2.70;;;;;;;16.09;98.55;97115.52;110122;1243;59726;-70
2023/07/29 04:17:33;;;;;;;3.80;2.80;;;;;;;16.05;99.32;97113.95;110078;1244;70999;-69
2023/07/29 04:20:05;;;;;;;3.80;3.20;;;;;;;16.06;98.50;97111.42;109928;1245;69499;-69
2023/07/29 04:22:35;;;;;;;3.40;2.90;;;;;;;16.12;97.51;97109.81;110119;1242;70061;-69
2023/07/29 04:25:06;;;;;;;3.40;2.90;;;;;;;16.14;96.53;97109.39;109980;1245;59739;-68
2023/07/29 04:27:35;;;;;;;4.10;2.90;;;;;;;16.17;98.09;97116.09;110134;1244;59695;-68
2023/07/29 04:30:06;;;;;;;3.10;2.80;;;;;;;16.20;97.05;97117.33;110175;1241;71242;-69
2023/07/29 04:32:35;;;;;;;4.40;3.10;;;;;;;16.25;97.61;97121.13;110043;1244;67850;-68
2023/07/29 04:35:09;;;;;;;3.90;2.90;;;;;;;16.28;97.92;97123.75;110030;1244;69643;-69
2023/07/29 04:37:39;;;;;;;4.60;3.40;;;;;;;16.46;96.11;97125.15;110112;1241;59666;-70
2023/07/29 04:40:10;;;;;;;4.70;3.00;;;;;;;16.57;96.93;97125.61;110132;1241;59697;-70
2023/07/29 04:42:40;;;;;;;4.80;3.20;;;;;;;16.60;98.70;97125.33;110138;1241;69683;-70
2023/07/29 04:45:10;;;;;;;4.40;3.20;;;;;;;16.64;98.22;97124.34;110103;1243;69099;-70
2023/07/29 04:47:40;;;;;;;5.00;3.40;;;;;;;16.66;97.65;97120.33;110119;1241;69456;-70
2023/07/29 04:50:10;;;;;;;4.90;3.60;;;;;;;16.71;97.61;97121.91;110060;1244;59676;-70
2023/07/29 04:52:40;;;;;;;5.50;3.40;;;;;;;16.69;99.94;97124.93;110130;1243;59680;-69
2023/07/29 04:55:10;;;;;;;4.80;3.30;;;;;;;16.70;100.00;97124.64;109874;1241;71402;-70
2023/07/29 04:57:39;;;;;;;4.40;3.60;;;;;;;16.71;100.00;97121.70;110115;1241;69088;-70
2023/07/29 05:00:11;;;;;;;4.80;3.30;;;;;;;16.78;100.00;97118.10;110107;1245;69537;-71
2023/07/29 05:02:41;;;;;;;4.10;3.10;;;;;;;16.88;100.00;97116.34;110014;1244;59762;-70
2023/07/29 05:05:11;;;;;;;3.60;2.80;;;;;;;17.00;99.74;97119.64;110117;1245;59740;-71
2023/07/29 05:07:41;;;;;;;4.00;2.90;;;;;;;17.17;97.82;97124.09;110202;1244;72541;-70
2023/07/29 05:10:11;;;;;;;4.10;3.60;;;;;;;17.34;97.14;97125.46;110061;1241;68658;-69
2023/07/29 05:12:41;;;;;;;4.60;3.40;;;;;;;17.53;95.35;97125.22;110019;1244;68362;-70
2023/07/29 05:15:11;;;;;;;3.80;3.30;;;;;;;17.69;93.01;97126.38;110127;1241;60137;-70
2023/07/29 05:17:42;;;;;;;3.20;2.90;;;;;;;17.84;91.58;97127.25;110171;1244;59682;-70
2023/07/29 05:20:12;;;;;;;3.60;2.60;;;;;;;18.03;91.22;97126.53;110139;1242;70813;-70
2023/07/29 05:22:42;;;;;;;3.80;3.00;;;;;;;18.14;90.13;97126.66;110124;1243;68248;-70
2023/07/29 05:25:11;;;;;;;4.80;3.30;;;;;;;18.23;87.87;97130.56;110142;1243;68509;-69
2023/07/29 05:27:40;;;;;;;;;;;;;;;18.36;87.46;97131.68;109956;1244;59746;-70
2023/07/29 05:30:10;;;;;;;;;;;;;;;18.39;83.38;97131.02;109988;1245;59734;-68
2023/07/29 05:32:40;;;;;;;3.50;3.20;;;;;;;18.56;84.24;97131.19;109917;1244;71421;-69
2023/07/29 05:35:10;;;;;;;3.40;2.80;;;;;;;18.94;85.14;97132.91;109961;1242;69942;-69
2023/07/29 05:37:41;;;;;;;4.60;2.80;;;;;;;19.26;79.52;97127.92;109899;1245;69355;-69
2023/07/29 05:40:11;;;;;;;3.10;2.80;;;;;;;19.44;76.50;97133.23;110127;1244;60065;-68
2023/07/29 05:42:41;;;;;;;4.70;3.00;;;;;;;19.56;76.31;97136.81;110159;1243;59678;-69
2023/07/29 05:45:11;;;;;;;3.60;2.60;;;;;;;19.75;76.77;97135.89;110186;1244;70649;-68
2023/07/29 05:47:41;;;;;;;4.10;3.10;;;;;;;19.85;74.46;97134.04;110179;1244;69332;-70
2023/07/29 05:50:11;;;;;;;3.40;2.80;;;;;;;19.90;75.95;97137.58;110176;1244;69096;-69
2023/07/29 05:52:41;;;;;;;4.00;2.80;;;;;;;20.02;76.14;97144.10;110144;1244;59757;-71
2023/07/29 05:55:11;;;;;;;3.10;2.40;;;;;;;20.03;75.52;97147.08;110151;1244;59676;-69
2023/07/29 05:57:41;;;;;;;3.80;3.00;;;;;;;20.07;75.88;97146.05;110141;1241;70665;-68
2023/07/29 06:00:12;;;;;;;3.30;2.60;;;;;;;20.18;74.62;97144.30;110074;1244;69102;-70
2023/07/29 06:02:42;;;;;;;3.30;2.80;;;;;;;20.27;75.37;97148.14;110116;1245;68650;-69
2023/07/29 06:05:14;;;;;;;3.20;2.60;;;;;;;20.37;73.80;97153.52;110012;1244;59771;-70
2023/07/29 06:07:44;;;;;;;3.50;2.70;;;;;;;20.47;72.10;97152.66;110162;1241;59732;-69
2023/07/29 06:10:19;;;;;;;3.90;2.90;;;;;;;20.53;72.07;97154.02;110039;1244;71458;-71
2023/07/29 06:12:49;;;;;;;3.50;2.90;;;;;;;20.63;72.21;97152.40;110145;1241;69092;-70
2023/07/29 06:15:21;;;;;;;3.10;2.70;;;;;;;20.77;72.19;97154.45;110083;1244;68582;-69
2023/07/29 06:17:50;;;;;;;3.80;2.90;;;;;;;20.79;72.26;97156.75;110139;1244;59771;-67
2023/07/29 06:20:24;;;;;;;2.40;2.20;;;;;;;20.92;72.26;97158.58;110128;1241;59751;-69
2023/07/29 06:22:53;;;;;;;3.10;2.80;;;;;;;20.98;71.54;97157.31;110005;1241;71424;-69
2023/07/29 06:25:22;;;;;;;5.50;2.80;;;;;;;20.96;71.64;97161.05;110094;1241;69156;-69
2023/07/29 06:27:52;;;;;;;3.60;3.20;;;;;;;20.91;71.44;97164.12;110067;1244;69862;-69
2023/07/29 06:30:21;;;;;;;3.50;2.90;;;;;;;20.91;71.81;97163.50;110103;1244;59744;-70
2023/07/29 06:32:50;;;;;;;3.10;2.70;;;;;;;20.84;71.67;97161.61;110088;1243;59684;-70
2023/07/29 06:35:20;;;;;;;3.20;2.90;;;;;;;21.04;71.99;97164.26;110073;1241;71985;-69
2023/07/29 06:37:50;;;;;;;5.30;2.90;;;;;;;21.19;70.96;97167.56;110102;1242;68489;-70
2023/07/29 06:40:19;;;;;;;4.80;3.40;;;;;;;21.60;69.68;97163.33;110085;1241;69313;-69
2023/07/29 06:42:49;;;;;;;3.90;2.70;;;;;;;22.01;67.71;97157.92;110103;1243;59980;-69
2023/07/29 06:45:18;;;;;;;4.20;2.60;;;;;;;22.54;68.64;97161.12;110145;1244;60008;-69
2023/07/29 06:47:48;;;;;;;2.90;2.60;;;;;;;23.33;68.86;97161.45;110106;1241;71343;-70
2023/07/29 06:50:18;;;;;;;3.50;2.40;;;;;;;23.93;62.91;97157.96;110131;1244;69266;-71
2023/07/29 06:52:47;;;;;;;3.00;2.50;;;;;;;24.07;60.33;97157.77;110108;1244;69242;-69
2023/07/29 06:55:16;;;;;;;;;;;;;;;24.12;56.54;97155.64;110144;1243;59712;-70
2023/07/29 06:57:46;;;;;;;3.50;2.80;;;;;;;24.39;57.22;97156.89;110022;1241;59647;-69
2023/07/29 07:00:15;;;;;;;3.00;2.40;;;;;;;24.53;56.70;97156.98;110090;1244;71429;-70
2023/07/29 07:02:44;;;;;;;3.40;2.60;;;;;;;24.96;57.71;97153.61;110085;1243;69797;-70
2023/07/29 07:05:13;;;;;;;;;;;;;;;25.50;56.93;97147.08;110145;1244;69298;-70
2023/07/29 07:07:42;;;;;;;3.90;2.60;;;;;;;25.78;53.55;97144.98;110155;1244;59679;-71
2023/07/29 07:10:11;;;;;;;4.50;2.80;;;;;;;25.68;53.48;97146.23;110202;1243;59650;-72
2023/07/29 07:12:40;;;;;;;4.00;2.40;;;;;;;25.71;49.94;97147.38;110146;1241;71952;-71
2023/07/29 07:15:10;;;;;;;4.10;2.40;;;;;;;25.96;52.00;97142.35;110180;1241;69256;-70
2023/07/29 07:17:41;;;;;;;3.50;2.50;;;;;;;26.06;50.76;97144.64;110113;1243;68603;-70
2023/07/29 07:20:11;;;;;;;3.10;2.50;;;;;;;26.20;50.35;97144.09;110118;1243;59684;-71
2023/07/29 07:22:40;;;;;;;3.40;2.50;;;;;;;26.72;48.11;97142.21;110122;1241;59678;-70
2023/07/29 07:25:09;;;;;;;;;;;;;;;26.93;46.64;97142.05;110142;1244;71334;-70
2023/07/29 07:27:38;;;;;;;3.40;2.60;;;;;;;27.32;46.24;97142.70;110134;1243;69151;-71
2023/07/29 07:30:07;;;;;;;;;;;;;;;27.50;45.05;97137.52;110113;1245;69865;-69
2023/07/29 07:32:37;;;;;;;3.10;2.70;;;;;;;27.67;44.98;97141.36;110132;1243;59634;-71
2023/07/29 07:35:06;;;;;;;3.00;2.30;;;;;;;27.65;44.53;97141.83;110125;1244;59649;-71
2023/07/29 07:37:36;;;;;;;3.20;2.50;;;;;;;27.70;44.40;97138.23;110121;1245;71427;-69
2023/07/29 07:40:06;;;;;;;3.80;2.30;;;;;;;27.22;44.17;97138.20;110095;1244;69216;-72
2023/07/29 07:42:36;;;;;;;4.00;2.60;;;;;;;27.15;45.29;97139.66;110075;1244;69519;-70
2023/07/29 07:45:06;;;;;;;2.90;2.50;;;;;;;27.00;45.12;97136.45;110072;1241;59757;-70
2023/07/29 07:47:38;;;;;;;3.30;2.90;;;;;;;26.65;45.67;97140.08;110129;1241;59709;-71
2023/07/29 07:50:07;;;;;;;3.50;2.30;;;;;;;26.55;45.96;97135.06;110154;1244;71454;-70
2023/07/29 07:52:36;;;;;;;2.90;2.10;;;;;;;26.50;45.85;97136.48;110104;1244;69382;-70
2023/07/29 07:55:06;;;;;;;3.30;3.00;;;;;;;26.57;46.45;97135.30;110081;1241;68678;-70
2023/07/29 07:57:35;;;;;;;3.50;2.50;;;;;;;26.90;46.91;97133.80;110105;1244;59757;-71
2023/07/29 08:00:05;;;;;;;3.00;2.40;;;;;;;27.41;46.03;97133.55;110083;1241;59725;-70
2023/07/29 08:02:40;;;;;;;3.50;2.40;;;;;;;27.53;45.39;97133.23;110076;1241;70586;-70
2023/07/29 08:05:10;;;;;;;2.50;2.20;;;;;;;27.71;45.65;97133.38;110012;1241;68419;-70
2023/07/29 08:07:39;;;;;;;;;;;;;;;27.93;45.24;97128.77;110095;1241;68585;-70
2023/07/29 08:10:08;;;;;;;3.10;2.60;;;;;;;27.91;43.97;97130.93;110100;1243;59714;-69
2023/07/29 08:12:38;;;;;;;3.00;2.50;;;;;;;27.73;44.43;97132.73;110156;1244;60094;-70
2023/07/29 08:15:07;;;;;;;3.30;2.40;;;;;;;27.53;45.27;97135.17;110193;1241;71883;-71
2023/07/29 08:17:36;;;;;;;3.20;2.60;;;;;;;27.43;45.95;97136.98;110145;1243;69209;-71
2023/07/29 08:20:07;;;;;;;3.30;2.40;;;;;;;27.05;46.23;97138.02;110115;1244;69953;-70
2023/07/29 08:22:36;;;;;;;3.30;2.70;;;;;;;26.94;47.35;97141.64;110090;1241;59708;-69
2023/07/29 08:25:05;;;;;;;;;;;;;;;26.63;46.90;97137.02;110063;1245;59764;-70
2023/07/29 08:27:34;;;;;;;3.50;2.80;;;;;;;26.12;48.03;97137.51;110143;1243;72049;-70
2023/07/29 08:30:04;;;;;;;3.50;2.60;;;;;;;25.55;49.66;97135.91;110063;1244;69136;-70
2023/07/29 08:32:32;;;;;;;3.60;2.60;;;;;;;25.63;49.66;97134.98;110099;1241;69862;-69
2023/07/29 08:35:02;;;;;;;3.30;3.00;;;;;;;25.61;49.55;97135.02;110139;1244;59749;-69
2023/07/29 08:37:32;;;;;;;3.90;3.10;;;;;;;25.49;50.14;97134.26;110180;1241;59770;-68
2023/07/29 08:40:01;;;;;;;3.70;2.50;;;;;;;25.41;50.60;97132.10;110137;1242;71958;-67
2023/07/29 08:42:34;;;;;;;3.40;2.40;;;;;;;25.57;50.48;97128.33;110178;1242;69787;-69
2023/07/29 08:45:08;;;;;;;4.00;3.00;;;;;;;25.75;50.15;97127.02;110164;1241;69865;-69
2023/07/29 08:47:37;;;;;;;3.30;3.00;;;;;;;25.55;49.62;97127.23;110123;1245;59764;-67
2023/07/29 08:50:07;;;;;;;4.10;2.80;;;;;;;25.77;49.82;97128.78;110183;1243;60156;-68
2023/07/29 08:52:37;;;;;;;3.10;2.70;;;;;;;26.29;49.13;97128.77;110188;1244;70878;-69
2023/07/29 08:55:06;;;;;;;2.80;2.50;;;;;;;27.02;47.00;97128.15;110161;1245;69817;-70
2023/07/29 08:57:36;;;;;;;3.60;2.60;;;;;;;27.67;47.11;97124.55;110124;1241;68122;-70
2023/07/29 09:00:06;;;;;;;3.20;2.40;;;;;;;28.55;43.67;97127.45;110138;1243;60101;-69
2023/07/29 09:02:35;;;;;;;2.60;2.10;;;;;;;29.14;42.22;97128.05;110159;1244;59647;-71
2023/07/29 09:05:05;;;;;;;2.80;2.00;;;;;;;29.98;43.44;97124.88;110158;1244;70421;-69
2023/07/29 09:07:36;;;;;;;3.50;2.20;;;;;;;30.57;40.88;97123.48;110071;1245;69267;-69
2023/07/29 09:10:13;;;;;;;2.40;2.20;;;;;;;30.48;38.73;97119.30;110249;1244;69347;-69
2023/07/29 09:12:42;;;;;;;3.80;2.50;;;;;;;30.30;38.93;97118.69;110072;1243;59750;-71
2023/07/29 09:15:11;;;;;;;3.60;2.40;;;;;;;30.32;38.81;97118.71;110066;1245;59701;-69
2023/07/29 09:17:41;;;;;;;3.20;2.40;;;;;;;30.45;38.64;97115.09;110129;1245;71561;-71
2023/07/29 09:20:11;;;;;;;3.50;2.60;;;;;;;30.77;38.86;97115.02;110109;1245;69670;-69
2023/07/29 09:22:40;;;;;;;3.70;2.40;;;;;;;31.24;36.55;97112.27;110102;1243;69286;-69
2023/07/29 09:25:09;;;;;;;2.40;2.20;;;;;;;31.47;36.70;97108.55;110105;1245;59688;-69
2023/07/29 09:27:39;;;;;;;4.20;2.30;;;;;;;32.07;35.84;97107.02;110132;1244;59820;-71
2023/07/29 09:30:16;;;;;;;3.30;2.20;;;;;;;32.37;34.45;97105.40;110134;1244;71891;-73
2023/07/29 09:32:45;;;;;;;2.80;2.40;;;;;;;32.83;34.49;97106.66;110149;1244;69351;-70
2023/07/29 09:35:14;;;;;;;3.00;2.20;;;;;;;33.10;33.89;97102.94;110041;1245;69252;-70
2023/07/29 09:37:43;;;;;;;2.90;2.10;;;;;;;33.51;34.35;97103.46;110138;1241;59715;-70
2023/07/29 09:40:15;;;;;;;4.20;2.40;;;;;;;33.59;32.68;97100.13;110128;1244;59722;-69
2023/07/29 09:42:52;;;;;;;3.30;2.50;;;;;;;33.42;33.31;97100.88;110153;1245;70710;-68
2023/07/29 09:45:26;;;;;;;2.80;2.30;;;;;;;33.11;33.54;97098.33;110171;1245;69779;-66
2023/07/29 09:47:57;;;;;;;3.20;2.70;;;;;;;33.46;33.93;97092.86;110140;1244;69315;-69
2023/07/29 09:50:27;;;;;;;3.00;2.50;;;;;;;33.62;33.07;97089.02;110104;1244;59689;-69
2023/07/29 09:53:00;;;;;;;3.00;2.10;;;;;;;33.32;33.89;97090.54;110092;1244;59797;-70
2023/07/29 09:55:33;;;;;;;2.80;2.50;;;;;;;33.62;33.37;97086.48;110129;1241;71896;-71
2023/07/29 09:58:08;;;;;;;2.70;2.20;;;;;;;34.14;33.81;97087.47;110107;1245;69924;-70
2023/07/29 10:00:38;;;;;;;3.00;2.10;;;;;;;34.46;32.61;97079.35;110072;1245;69859;-69
2023/07/29 10:03:08;;;;;;;2.60;1.90;;;;;;;34.52;32.31;97079.19;110109;1245;59673;-69
2023/07/29 10:05:38;;;;;;;3.10;2.30;;;;;;;34.46;32.49;97080.25;110134;1242;59716;-69
2023/07/29 10:08:10;;;;;;;3.00;2.20;;;;;;;34.38;32.88;97083.35;110401;1245;70308;-69
2023/07/29 10:10:42;;;;;;;3.20;2.20;;;;;;;34.35;32.45;97079.23;110224;1244;68454;-69
2023/07/29 10:13:13;;;;;;;2.30;1.80;;;;;;;34.45;32.52;97078.68;110056;1244;69722;-69
2023/07/29 10:15:43;;;;;;;3.80;2.60;;;;;;;34.61;32.00;97075.27;110095;1244;59706;-68
2023/07/29 10:18:13;;;;;;;3.20;2.30;;;;;;;34.39;32.94;97076.04;110118;1245;59698;-68
2023/07/29 10:20:43;;;;;;;3.80;2.40;;;;;;;34.34;33.41;97074.83;110308;1243;71881;-69
2023/07/29 10:23:15;;;;;;;3.40;2.10;;;;;;;34.39;33.24;97072.11;110161;1244;69380;-68
2023/07/29 10:25:49;;;;;;;4.20;3.30;;;;;;;34.19;33.12;97073.61;110048;1245;69850;-68
2023/07/29 10:28:24;;;;;;;5.00;4.30;;;;;;;34.27;32.28;97068.70;110030;1245;59754;-69
2023/07/29 10:30:54;;;;;;;3.40;2.30;;;;;;;34.44;31.63;97070.45;110028;1244;59695;-68
2023/07/29 10:33:24;;;;;;;3.80;2.50;;;;;;;34.72;31.63;97068.58;110080;1244;71941;-68
2023/07/29 10:35:54;;;;;;;3.40;2.50;;;;;;;34.48;31.50;97066.27;110063;1245;68475;-67
2023/07/29 10:38:24;;;;;;;5.40;3.90;;;;;;;34.50;30.95;97068.21;110050;1245;69157;-69
2023/07/29 10:40:56;;;;;;;5.40;4.00;;;;;;;34.32;31.47;97066.91;110071;1243;59677;-68
2023/07/29 10:43:27;;;;;;;3.90;3.50;;;;;;;34.56;31.23;97069.90;110097;1244;59750;-69
2023/07/29 10:45:58;;;;;;;2.90;2.30;;;;;;;34.57;31.13;97065.73;110035;1244;70721;-68
2023/07/29 10:48:44;;;;;;;3.40;2.50;;;;;;;33.86;31.75;97064.15;110060;1245;70244;-68
2023/07/29 10:51:32;;;;;;;3.70;2.90;;;;;;;33.83;32.58;97059.86;110096;1245;69184;-68
2023/07/29 10:54:11;;;;;;;3.20;2.30;;;;;;;33.84;31.38;97056.19;110026;1245;59705;-67
2023/07/29 10:56:41;;;;;;;;;;;;;;;33.48;31.86;97054.95;109768;1246;59682;-68
2023/07/29 10:59:16;;;;;;;2.60;2.30;;;;;;;33.62;32.05;97053.32;110091;1243;71262;-67
2023/07/29 11:01:58;;;;;;;4.70;2.20;;;;;;;33.96;32.57;97049.05;110114;1243;69213;-69
2023/07/29 11:04:30;;;;;;;3.70;2.80;;;;;;;34.42;31.59;97047.82;110100;1245;69866;-69
2023/07/29 11:07:10;;;;;;;3.30;2.20;;;;;;;34.25;31.59;97049.17;110040;1245;59750;-69
2023/07/29 11:09:39;;;;;;;3.30;2.10;;;;;;;34.60;32.23;97046.88;110106;1245;59695;-68
2023/07/29 11:12:37;;;;;;;3.80;2.20;;;;;;;35.00;31.69;97045.54;110083;1244;72060;-68
2023/07/29 11:15:09;;;;;;;2.80;2.30;;;;;;;35.16;31.88;97046.84;109970;1245;69915;-69
2023/07/29 11:17:50;;;;;;;4.10;2.70;;;;;;;35.08;31.41;97041.85;110077;1244;68330;-68
2023/07/29 11:20:31;;;;;;;2.60;2.30;;;;;;;34.98;31.11;97044.03;110084;1245;59707;-68
2023/07/29 11:23:02;;;;;;;3.80;2.30;;;;;;;35.18;31.51;97038.85;109840;1244;59692;-68
2023/07/29 11:25:33;;;;;;;3.00;2.30;;;;;;;35.22;31.53;97035.86;110185;1242;71192;-69
2023/07/29 11:28:02;;;;;;;2.70;2.10;;;;;;;35.27;31.12;97034.36;110124;1243;68558;-69
2023/07/29 11:30:39;;;;;;;3.00;2.00;;;;;;;35.08;32.87;97036.77;110119;1245;69720;-69
2023/07/29 11:33:08;;;;;;;3.80;2.50;;;;;;;35.39;31.65;97033.77;110137;1244;59671;-68
2023/07/29 11:35:38;;;;;;;3.00;2.30;;;;;;;35.47;31.14;97026.88;110115;1244;59688;-68
2023/07/29 11:38:06;;;;;;;3.30;2.50;;;;;;;35.00;32.39;97026.80;110214;1241;71943;-70
2023/07/29 11:40:35;;;;;;;3.30;2.70;;;;;;;34.56;33.26;97024.52;110164;1245;69227;-69
2023/07/29 11:43:04;;;;;;;3.70;2.70;;;;;;;33.93;33.95;97019.86;110178;1244;69170;-69